ETD11K LFPG-OMAA
Flight info
| Callsign | ETD11K |
|---|---|
| Flight time | N/A |
| Altitude | 37000 |
| Route | RANUX DCT VALEK DCT LIPNI DCT EXCOS DCT KRH DCT UTABA DCT BEMKI DCT ELMEM DCT DIRAB DCT VESAL DCT VAKSU DCT PINDO DCT VEXOL UG802 IMR UN135 NESIL UT39 TOMBI DCT BALMA/N0484F390 UR655 CAK UN310 LATEB N310 BASEM R785 RASLI P559 TRF R23 NEVOL N318 TAMRO T503 KSA N687 KINIB Z511 GISRA L681 ORLEK DCT KUPRO/N0505F350 N300 KAXOB Q415 UKILI |
| Aircraft | A35K/H-SDE2E3GHIJ3J4J5LM1ORWXY/LB1D1 |
Departure
| Time | 2026-05-07 09:21 |
|---|---|
| Airport | Charles de Gaulle International Airport (LFPG) |
Arrival
| Time | N/A |
|---|---|
| Airport | Zayed International Airport (OMAA) |
| Time | Latitude | Longitude | Altitude | Speed | Heading |
|---|---|---|---|---|---|
| 2026-05-07 08:40 | 49.01735 | 2.54204 | 355 ft | 0 kts | 226° |
| 2026-05-07 09:11 | 49.01736 | 2.54207 | 360 ft | 3 kts | 226° |
| 2026-05-07 09:11 | 49.01750 | 2.54228 | 364 ft | 3 kts | 220° |
| 2026-05-07 09:11 | 49.01766 | 2.54245 | 362 ft | 3 kts | 202° |
| 2026-05-07 09:11 | 49.01785 | 2.54253 | 367 ft | 3 kts | 185° |
| 2026-05-07 09:12 | 49.01804 | 2.54253 | 365 ft | 3 kts | 168° |
| 2026-05-07 09:12 | 49.01823 | 2.54244 | 364 ft | 3 kts | 150° |
| 2026-05-07 09:12 | 49.01824 | 2.54243 | 365 ft | 0 kts | 149° |
| 2026-05-07 09:15 | 49.01823 | 2.54244 | 364 ft | 1 kts | 148° |
| 2026-05-07 09:15 | 49.01818 | 2.54269 | 368 ft | 10 kts | 103° |
| 2026-05-07 09:15 | 49.01826 | 2.54442 | 363 ft | 17 kts | 82° |
| 2026-05-07 09:16 | 49.01839 | 2.54630 | 361 ft | 18 kts | 85° |
| 2026-05-07 09:16 | 49.01850 | 2.54823 | 361 ft | 19 kts | 85° |
| 2026-05-07 09:16 | 49.01859 | 2.55027 | 365 ft | 20 kts | 86° |
| 2026-05-07 09:16 | 49.01870 | 2.55229 | 364 ft | 16 kts | 84° |
| 2026-05-07 09:17 | 49.01879 | 2.55370 | 363 ft | 12 kts | 84° |
| 2026-05-07 09:17 | 49.01888 | 2.55507 | 367 ft | 14 kts | 84° |
| 2026-05-07 09:17 | 49.01897 | 2.55656 | 363 ft | 15 kts | 86° |
| 2026-05-07 09:17 | 49.01904 | 2.55806 | 365 ft | 13 kts | 85° |
| 2026-05-07 09:18 | 49.01913 | 2.55932 | 361 ft | 12 kts | 85° |
| 2026-05-07 09:18 | 49.01920 | 2.56070 | 364 ft | 14 kts | 87° |
| 2026-05-07 09:18 | 49.01926 | 2.56220 | 366 ft | 15 kts | 86° |
| 2026-05-07 09:18 | 49.01932 | 2.56383 | 367 ft | 16 kts | 86° |
| 2026-05-07 09:19 | 49.01942 | 2.56557 | 364 ft | 17 kts | 78° |
| 2026-05-07 09:19 | 49.02027 | 2.56627 | 365 ft | 15 kts | 1° |
| 2026-05-07 09:19 | 49.02131 | 2.56619 | 367 ft | 15 kts | 355° |
| 2026-05-07 09:19 | 49.02242 | 2.56607 | 362 ft | 16 kts | 355° |
| 2026-05-07 09:20 | 49.02334 | 2.56533 | 366 ft | 14 kts | 297° |
| 2026-05-07 09:20 | 49.02337 | 2.56464 | 360 ft | 0 kts | 266° |
| 2026-05-07 09:20 | 49.02337 | 2.56451 | 360 ft | 3 kts | 266° |
| 2026-05-07 09:20 | 49.02323 | 2.56180 | 363 ft | 57 kts | 264° |
| 2026-05-07 09:21 | 49.02277 | 2.55269 | 365 ft | 114 kts | 264° |
| 2026-05-07 09:21 | 49.02208 | 2.53805 | 365 ft | 162 kts | 263° |
| 2026-05-07 09:21 | 49.02049 | 2.51974 | 744 ft | 175 kts | 264° |
| 2026-05-07 09:21 | 49.01922 | 2.50172 | 1576 ft | 166 kts | 265° |
| 2026-05-07 09:22 | 49.01827 | 2.48447 | 2288 ft | 159 kts | 266° |
| 2026-05-07 09:22 | 49.01739 | 2.46777 | 2819 ft | 162 kts | 267° |
| 2026-05-07 09:22 | 49.01669 | 2.44967 | 3081 ft | 181 kts | 268° |
| 2026-05-07 09:22 | 49.01722 | 2.42953 | 3317 ft | 201 kts | 282° |
| 2026-05-07 09:23 | 49.02363 | 2.40987 | 3569 ft | 217 kts | 313° |
| 2026-05-07 09:23 | 49.03578 | 2.39584 | 4038 ft | 222 kts | 329° |
| 2026-05-07 09:23 | 49.05036 | 2.38701 | 4441 ft | 234 kts | 348° |
| 2026-05-07 09:23 | 49.06721 | 2.38771 | 4738 ft | 253 kts | 16° |
| 2026-05-07 09:24 | 49.08270 | 2.40083 | 5317 ft | 261 kts | 43° |
| 2026-05-07 09:24 | 49.09276 | 2.42387 | 5947 ft | 266 kts | 72° |
| 2026-05-07 09:24 | 49.09529 | 2.45178 | 6645 ft | 268 kts | 91° |
| 2026-05-07 09:24 | 49.09493 | 2.48043 | 7350 ft | 272 kts | 92° |
| 2026-05-07 09:25 | 49.09440 | 2.50959 | 8070 ft | 277 kts | 92° |
| 2026-05-07 09:25 | 49.09401 | 2.53917 | 8806 ft | 281 kts | 91° |
| 2026-05-07 09:25 | 49.09371 | 2.56929 | 9558 ft | 286 kts | 91° |
| 2026-05-07 09:25 | 49.09346 | 2.59942 | 10273 ft | 291 kts | 91° |
| 2026-05-07 09:26 | 49.09321 | 2.63116 | 10656 ft | 308 kts | 91° |
| 2026-05-07 09:26 | 49.09296 | 2.66483 | 10979 ft | 327 kts | 91° |
| 2026-05-07 09:26 | 49.09276 | 2.70098 | 11307 ft | 345 kts | 90° |
| 2026-05-07 09:26 | 49.09261 | 2.73798 | 11630 ft | 362 kts | 90° |
| 2026-05-07 09:27 | 49.09243 | 2.77723 | 11986 ft | 377 kts | 91° |
| 2026-05-07 09:27 | 49.09223 | 2.81768 | 12533 ft | 385 kts | 91° |
| 2026-05-07 09:27 | 49.09178 | 2.90050 | 13830 ft | 395 kts | 91° |
| 2026-05-07 09:28 | 49.09153 | 2.94266 | 14423 ft | 400 kts | 91° |
| 2026-05-07 09:28 | 49.09126 | 2.98526 | 15048 ft | 403 kts | 91° |
| 2026-05-07 09:28 | 49.09096 | 3.02825 | 15669 ft | 407 kts | 91° |
| 2026-05-07 09:28 | 49.09065 | 3.07161 | 16290 ft | 410 kts | 91° |
| 2026-05-07 09:29 | 49.09033 | 3.11525 | 16901 ft | 414 kts | 91° |
| 2026-05-07 09:29 | 49.08998 | 3.15940 | 17517 ft | 418 kts | 91° |
| 2026-05-07 09:29 | 49.08961 | 3.20388 | 18167 ft | 421 kts | 91° |
| 2026-05-07 09:29 | 49.08922 | 3.24879 | 18710 ft | 425 kts | 91° |
| 2026-05-07 09:30 | 49.08881 | 3.29400 | 18994 ft | 427 kts | 91° |
| 2026-05-07 09:30 | 49.08838 | 3.33924 | 19055 ft | 428 kts | 91° |
| 2026-05-07 09:30 | 49.08793 | 3.38471 | 19072 ft | 429 kts | 91° |
| 2026-05-07 09:30 | 49.08746 | 3.43031 | 19412 ft | 432 kts | 91° |
| 2026-05-07 09:31 | 49.08697 | 3.47645 | 20046 ft | 434 kts | 91° |
| 2026-05-07 09:31 | 49.08649 | 3.52199 | 20648 ft | 437 kts | 91° |
| 2026-05-07 09:31 | 49.08747 | 3.56852 | 21225 ft | 441 kts | 85° |
| 2026-05-07 09:31 | 49.09035 | 3.61534 | 21792 ft | 445 kts | 84° |
| 2026-05-07 09:32 | 49.09359 | 3.66243 | 22364 ft | 449 kts | 84° |
| 2026-05-07 09:32 | 49.09686 | 3.70996 | 22934 ft | 453 kts | 84° |
| 2026-05-07 09:32 | 49.10011 | 3.75795 | 23494 ft | 457 kts | 84° |
| 2026-05-07 09:32 | 49.10336 | 3.80638 | 23991 ft | 460 kts | 84° |
| 2026-05-07 09:33 | 49.10660 | 3.85519 | 24483 ft | 463 kts | 84° |
| 2026-05-07 09:33 | 49.10983 | 3.90430 | 24980 ft | 466 kts | 84° |
| 2026-05-07 09:33 | 49.11305 | 3.95369 | 25468 ft | 469 kts | 84° |
| 2026-05-07 09:33 | 49.11627 | 4.00343 | 25968 ft | 472 kts | 84° |
| 2026-05-07 09:34 | 49.11949 | 4.05343 | 26463 ft | 475 kts | 84° |
| 2026-05-07 09:34 | 49.12270 | 4.10374 | 26949 ft | 478 kts | 84° |
| 2026-05-07 09:34 | 49.12592 | 4.15436 | 27437 ft | 480 kts | 84° |
| 2026-05-07 09:34 | 49.12913 | 4.20527 | 27905 ft | 483 kts | 84° |
| 2026-05-07 09:35 | 49.13233 | 4.25642 | 28355 ft | 486 kts | 84° |
| 2026-05-07 09:35 | 49.13558 | 4.30794 | 28793 ft | 489 kts | 84° |
| 2026-05-07 09:35 | 49.14103 | 4.35859 | 29202 ft | 491 kts | 76° |
| 2026-05-07 09:35 | 49.15133 | 4.40835 | 29607 ft | 493 kts | 69° |
| 2026-05-07 09:36 | 49.16376 | 4.45727 | 30006 ft | 495 kts | 67° |
| 2026-05-07 09:36 | 49.17692 | 4.50576 | 30514 ft | 493 kts | 66° |
| 2026-05-07 09:36 | 49.19026 | 4.55380 | 31024 ft | 491 kts | 66° |
| 2026-05-07 09:36 | 49.20359 | 4.60178 | 31476 ft | 489 kts | 66° |
| 2026-05-07 09:37 | 49.21679 | 4.64967 | 31929 ft | 488 kts | 66° |
| 2026-05-07 09:37 | 49.22987 | 4.69760 | 32383 ft | 487 kts | 66° |
| 2026-05-07 09:37 | 49.24280 | 4.74542 | 32792 ft | 486 kts | 66° |
| 2026-05-07 09:37 | 49.25566 | 4.79330 | 33216 ft | 485 kts | 66° |
| 2026-05-07 09:38 | 49.26845 | 4.84110 | 33617 ft | 485 kts | 67° |
| 2026-05-07 09:38 | 49.28118 | 4.88885 | 34005 ft | 484 kts | 67° |
| 2026-05-07 09:38 | 49.29388 | 4.93658 | 34299 ft | 484 kts | 67° |
| 2026-05-07 09:38 | 49.30656 | 4.98432 | 34551 ft | 485 kts | 67° |
| 2026-05-07 09:39 | 49.31927 | 5.03222 | 34773 ft | 486 kts | 67° |
| 2026-05-07 09:39 | 49.33201 | 5.08032 | 35011 ft | 487 kts | 67° |
| 2026-05-07 09:39 | 49.34472 | 5.12845 | 35253 ft | 487 kts | 67° |
| 2026-05-07 09:39 | 49.35742 | 5.17661 | 35454 ft | 488 kts | 67° |
| 2026-05-07 09:40 | 49.37015 | 5.22499 | 35687 ft | 489 kts | 67° |
| 2026-05-07 09:40 | 49.38288 | 5.27345 | 35902 ft | 490 kts | 68° |
| 2026-05-07 09:40 | 49.39560 | 5.32199 | 36121 ft | 490 kts | 68° |
| 2026-05-07 09:40 | 49.40830 | 5.37056 | 36330 ft | 491 kts | 68° |
| 2026-05-07 09:41 | 49.42100 | 5.41925 | 36530 ft | 492 kts | 68° |
| 2026-05-07 09:41 | 49.43372 | 5.46809 | 36722 ft | 493 kts | 68° |
| 2026-05-07 09:41 | 49.44642 | 5.51699 | 36908 ft | 493 kts | 68° |
| 2026-05-07 09:41 | 49.45914 | 5.56604 | 37034 ft | 496 kts | 68° |
| 2026-05-07 09:42 | 49.47176 | 5.61484 | 37040 ft | 500 kts | 68° |
| 2026-05-07 09:42 | 49.49741 | 5.71433 | 37036 ft | 500 kts | 68° |
| 2026-05-07 09:43 | 49.52155 | 5.81469 | 37036 ft | 500 kts | 75° |
| 2026-05-07 09:43 | 49.52994 | 5.92048 | 37039 ft | 499 kts | 93° |
| 2026-05-07 09:44 | 49.51538 | 6.02428 | 37049 ft | 498 kts | 112° |
| 2026-05-07 09:44 | 49.48553 | 6.12034 | 37043 ft | 498 kts | 119° |
| 2026-05-07 09:45 | 49.45201 | 6.21365 | 37043 ft | 499 kts | 120° |
| 2026-05-07 09:45 | 49.41851 | 6.30719 | 37038 ft | 499 kts | 119° |
| 2026-05-07 09:46 | 49.38557 | 6.40106 | 37037 ft | 499 kts | 119° |
| 2026-05-07 09:46 | 49.35284 | 6.49497 | 37033 ft | 499 kts | 119° |
| 2026-05-07 09:47 | 49.32021 | 6.58834 | 37030 ft | 499 kts | 119° |
| 2026-05-07 09:47 | 49.28734 | 6.68201 | 37027 ft | 499 kts | 119° |
| 2026-05-07 09:48 | 49.25434 | 6.77560 | 37026 ft | 499 kts | 119° |
| 2026-05-07 09:48 | 49.22124 | 6.86912 | 37021 ft | 499 kts | 119° |
| 2026-05-07 09:49 | 49.18810 | 6.96241 | 37021 ft | 500 kts | 119° |
| 2026-05-07 09:49 | 49.15485 | 7.05569 | 37023 ft | 500 kts | 120° |
| 2026-05-07 09:50 | 49.12153 | 7.14885 | 37019 ft | 500 kts | 120° |
| 2026-05-07 09:50 | 49.08814 | 7.24186 | 37022 ft | 500 kts | 120° |
| 2026-05-07 09:51 | 49.05462 | 7.33488 | 37025 ft | 500 kts | 120° |
| 2026-05-07 09:51 | 49.02131 | 7.42701 | 37029 ft | 500 kts | 120° |
| 2026-05-07 09:52 | 48.98762 | 7.51985 | 37032 ft | 500 kts | 120° |
| 2026-05-07 09:52 | 48.95390 | 7.61246 | 37031 ft | 500 kts | 120° |
| 2026-05-07 09:53 | 48.92009 | 7.70496 | 37035 ft | 500 kts | 120° |
| 2026-05-07 09:53 | 48.88620 | 7.79736 | 37040 ft | 501 kts | 120° |
| 2026-05-07 09:54 | 48.85219 | 7.88977 | 37045 ft | 501 kts | 120° |
| 2026-05-07 09:54 | 48.81813 | 7.98199 | 37049 ft | 501 kts | 121° |
| 2026-05-07 09:55 | 48.78400 | 8.07407 | 37048 ft | 501 kts | 121° |
| 2026-05-07 09:55 | 48.74979 | 8.16605 | 37061 ft | 501 kts | 121° |
| 2026-05-07 09:56 | 48.71569 | 8.25740 | 37052 ft | 501 kts | 121° |
| 2026-05-07 09:56 | 48.68130 | 8.34920 | 37048 ft | 501 kts | 121° |
| 2026-05-07 09:57 | 48.64683 | 8.44092 | 37022 ft | 501 kts | 121° |
| 2026-05-07 09:57 | 48.61231 | 8.53245 | 37013 ft | 501 kts | 121° |
| 2026-05-07 09:58 | 48.57772 | 8.62384 | 37025 ft | 501 kts | 121° |
| 2026-05-07 09:58 | 48.54309 | 8.71504 | 37015 ft | 501 kts | 121° |
| 2026-05-07 09:59 | 48.50826 | 8.80641 | 37012 ft | 502 kts | 121° |
| 2026-05-07 09:59 | 48.47342 | 8.89752 | 37004 ft | 502 kts | 122° |
| 2026-05-07 10:00 | 48.43848 | 8.98857 | 37011 ft | 502 kts | 122° |
| 2026-05-07 10:00 | 48.40349 | 9.07944 | 37010 ft | 502 kts | 122° |
| 2026-05-07 10:01 | 48.36841 | 9.17023 | 37012 ft | 502 kts | 122° |
| 2026-05-07 10:01 | 48.33326 | 9.26090 | 37012 ft | 502 kts | 122° |
| 2026-05-07 10:02 | 48.29825 | 9.35091 | 37014 ft | 502 kts | 122° |
| 2026-05-07 10:02 | 48.26149 | 9.43991 | 37014 ft | 500 kts | 129° |
| 2026-05-07 10:03 | 48.22177 | 9.50312 | 37014 ft | 496 kts | 140° |
| 2026-05-07 10:03 | 48.16921 | 9.56988 | 37016 ft | 495 kts | 143° |
| 2026-05-07 10:04 | 48.11576 | 9.63410 | 37013 ft | 495 kts | 143° |
| 2026-05-07 10:04 | 48.06229 | 9.69860 | 37011 ft | 495 kts | 143° |
| 2026-05-07 10:05 | 48.00865 | 9.76387 | 37019 ft | 495 kts | 143° |
| 2026-05-07 10:05 | 47.95529 | 9.82887 | 37025 ft | 495 kts | 143° |
| 2026-05-07 10:06 | 47.90189 | 9.89377 | 37025 ft | 495 kts | 143° |
| 2026-05-07 10:06 | 47.84812 | 9.95776 | 37022 ft | 494 kts | 145° |
| 2026-05-07 10:07 | 47.79299 | 10.01882 | 37029 ft | 493 kts | 147° |
| 2026-05-07 10:07 | 47.73758 | 10.07892 | 37031 ft | 493 kts | 147° |
| 2026-05-07 10:08 | 47.68231 | 10.13923 | 37034 ft | 493 kts | 146° |
| 2026-05-07 10:08 | 47.62711 | 10.19968 | 37039 ft | 493 kts | 146° |
| 2026-05-07 10:09 | 47.57195 | 10.26005 | 37045 ft | 492 kts | 147° |
| 2026-05-07 10:09 | 47.51681 | 10.32024 | 37029 ft | 492 kts | 147° |
| 2026-05-07 10:10 | 47.46207 | 10.37982 | 37039 ft | 492 kts | 147° |
| 2026-05-07 10:10 | 47.40698 | 10.43960 | 37026 ft | 491 kts | 147° |
| 2026-05-07 10:11 | 47.35187 | 10.49923 | 37018 ft | 491 kts | 147° |
| 2026-05-07 10:11 | 47.29680 | 10.55867 | 37006 ft | 491 kts | 147° |
| 2026-05-07 10:12 | 47.24153 | 10.61775 | 36997 ft | 490 kts | 148° |
| 2026-05-07 10:12 | 47.18600 | 10.67577 | 36985 ft | 489 kts | 148° |
| 2026-05-07 10:13 | 47.13036 | 10.73373 | 36984 ft | 490 kts | 148° |
| 2026-05-07 10:13 | 47.07477 | 10.79170 | 36984 ft | 490 kts | 148° |
| 2026-05-07 10:14 | 47.01922 | 10.84952 | 36973 ft | 489 kts | 148° |
| 2026-05-07 10:14 | 46.96378 | 10.90712 | 36982 ft | 488 kts | 149° |
| 2026-05-07 10:15 | 46.90849 | 10.96445 | 36991 ft | 487 kts | 149° |
| 2026-05-07 10:15 | 46.85354 | 11.02125 | 36987 ft | 487 kts | 149° |
| 2026-05-07 10:16 | 46.80170 | 11.08561 | 36988 ft | 494 kts | 136° |
| 2026-05-07 10:16 | 46.75671 | 11.16202 | 36983 ft | 497 kts | 134° |
| 2026-05-07 10:17 | 46.71300 | 11.24021 | 36978 ft | 498 kts | 133° |
| 2026-05-07 10:17 | 46.66924 | 11.31847 | 36967 ft | 498 kts | 134° |
| 2026-05-07 10:18 | 46.62529 | 11.39636 | 36968 ft | 498 kts | 134° |
| 2026-05-07 10:18 | 46.58121 | 11.47396 | 36961 ft | 497 kts | 134° |
| 2026-05-07 10:19 | 46.53710 | 11.55133 | 36963 ft | 497 kts | 134° |
| 2026-05-07 10:19 | 46.49293 | 11.62859 | 36964 ft | 497 kts | 135° |
| 2026-05-07 10:20 | 46.44867 | 11.70580 | 36959 ft | 498 kts | 135° |
| 2026-05-07 10:20 | 46.40433 | 11.78290 | 36953 ft | 497 kts | 135° |
| 2026-05-07 10:21 | 46.36000 | 11.85988 | 36952 ft | 497 kts | 135° |
| 2026-05-07 10:21 | 46.31593 | 11.93613 | 36950 ft | 497 kts | 135° |
| 2026-05-07 10:22 | 46.27155 | 12.01273 | 36980 ft | 497 kts | 135° |
| 2026-05-07 10:22 | 46.22703 | 12.08934 | 36968 ft | 498 kts | 135° |
| 2026-05-07 10:23 | 46.18252 | 12.16572 | 36969 ft | 497 kts | 135° |
| 2026-05-07 10:23 | 46.13805 | 12.24192 | 36980 ft | 496 kts | 135° |
| 2026-05-07 10:24 | 46.09349 | 12.31789 | 36989 ft | 496 kts | 136° |
| 2026-05-07 10:24 | 46.04892 | 12.39371 | 36986 ft | 495 kts | 136° |
| 2026-05-07 10:25 | 46.00433 | 12.46935 | 36999 ft | 495 kts | 136° |
| 2026-05-07 10:25 | 45.96003 | 12.54432 | 36994 ft | 495 kts | 136° |
| 2026-05-07 10:26 | 45.91535 | 12.61973 | 37001 ft | 496 kts | 136° |
| 2026-05-07 10:26 | 45.87059 | 12.69508 | 36991 ft | 496 kts | 136° |
| 2026-05-07 10:27 | 45.82582 | 12.77024 | 36988 ft | 496 kts | 136° |
| 2026-05-07 10:27 | 45.78098 | 12.84532 | 36963 ft | 496 kts | 136° |
| 2026-05-07 10:28 | 45.73607 | 12.92030 | 36969 ft | 496 kts | 136° |
| 2026-05-07 10:28 | 45.69109 | 12.99521 | 36984 ft | 496 kts | 136° |
| 2026-05-07 10:29 | 45.64606 | 13.06998 | 36974 ft | 496 kts | 136° |
| 2026-05-07 10:29 | 45.60099 | 13.14464 | 36977 ft | 496 kts | 137° |
| 2026-05-07 10:30 | 45.53359 | 13.25590 | 36995 ft | 496 kts | 137° |
| 2026-05-07 10:30 | 45.48841 | 13.33023 | 37004 ft | 496 kts | 137° |
| 2026-05-07 10:31 | 45.44318 | 13.40445 | 37012 ft | 496 kts | 137° |
| 2026-05-07 10:31 | 45.39792 | 13.47852 | 37017 ft | 496 kts | 137° |
| 2026-05-07 10:32 | 45.35259 | 13.55251 | 37015 ft | 496 kts | 137° |
| 2026-05-07 10:32 | 45.30723 | 13.62634 | 37013 ft | 496 kts | 137° |
| 2026-05-07 10:33 | 45.26185 | 13.70001 | 37008 ft | 495 kts | 137° |
| 2026-05-07 10:33 | 45.21647 | 13.77351 | 37013 ft | 495 kts | 137° |
| 2026-05-07 10:34 | 45.17112 | 13.84675 | 37010 ft | 494 kts | 137° |
| 2026-05-07 10:34 | 45.12567 | 13.91993 | 37019 ft | 494 kts | 137° |
| 2026-05-07 10:35 | 45.08021 | 13.99298 | 37019 ft | 494 kts | 137° |
| 2026-05-07 10:35 | 45.03504 | 14.06541 | 37023 ft | 494 kts | 137° |
| 2026-05-07 10:36 | 44.98953 | 14.13815 | 37021 ft | 494 kts | 137° |
| 2026-05-07 10:36 | 44.94401 | 14.21069 | 37023 ft | 493 kts | 137° |
| 2026-05-07 10:37 | 44.89847 | 14.28308 | 37013 ft | 493 kts | 137° |
| 2026-05-07 10:37 | 44.85291 | 14.35531 | 37024 ft | 493 kts | 137° |
| 2026-05-07 10:38 | 44.80735 | 14.42738 | 37022 ft | 492 kts | 137° |
| 2026-05-07 10:38 | 44.76178 | 14.49926 | 37021 ft | 492 kts | 137° |
| 2026-05-07 10:39 | 44.71616 | 14.57105 | 37025 ft | 492 kts | 137° |
| 2026-05-07 10:39 | 44.67050 | 14.64270 | 37026 ft | 492 kts | 137° |
| 2026-05-07 10:40 | 44.62487 | 14.71415 | 37025 ft | 491 kts | 137° |
| 2026-05-07 10:40 | 44.57920 | 14.78547 | 37028 ft | 491 kts | 137° |
| 2026-05-07 10:41 | 44.53347 | 14.85670 | 37027 ft | 491 kts | 137° |
| 2026-05-07 10:41 | 44.48799 | 14.92737 | 37027 ft | 491 kts | 137° |
| 2026-05-07 10:42 | 44.44221 | 14.99830 | 37032 ft | 491 kts | 137° |
| 2026-05-07 10:42 | 44.39641 | 15.06909 | 37035 ft | 491 kts | 137° |
| 2026-05-07 10:43 | 44.35054 | 15.13985 | 37068 ft | 492 kts | 138° |
| 2026-05-07 10:43 | 44.30417 | 15.21114 | 37036 ft | 498 kts | 138° |
| 2026-05-07 10:44 | 44.25751 | 15.28270 | 37042 ft | 499 kts | 138° |
| 2026-05-07 10:44 | 44.21079 | 15.35423 | 37044 ft | 499 kts | 138° |
| 2026-05-07 10:45 | 44.16396 | 15.42571 | 37045 ft | 499 kts | 138° |
| 2026-05-07 10:45 | 44.11712 | 15.49705 | 37043 ft | 499 kts | 138° |
| 2026-05-07 10:46 | 44.07021 | 15.56828 | 37044 ft | 499 kts | 138° |
| 2026-05-07 10:46 | 44.02328 | 15.63938 | 37040 ft | 499 kts | 138° |
| 2026-05-07 10:47 | 43.97632 | 15.71034 | 37041 ft | 499 kts | 138° |
| 2026-05-07 10:47 | 43.92931 | 15.78120 | 37036 ft | 499 kts | 138° |
| 2026-05-07 10:48 | 43.88224 | 15.85196 | 37039 ft | 499 kts | 138° |
| 2026-05-07 10:48 | 43.83512 | 15.92263 | 37032 ft | 499 kts | 138° |
| 2026-05-07 10:49 | 43.78793 | 15.99320 | 37049 ft | 499 kts | 138° |
| 2026-05-07 10:49 | 43.74072 | 16.06365 | 37046 ft | 500 kts | 138° |
| 2026-05-07 10:50 | 43.69343 | 16.13408 | 37040 ft | 500 kts | 138° |
| 2026-05-07 10:50 | 43.64637 | 16.20396 | 37047 ft | 499 kts | 138° |
| 2026-05-07 10:51 | 43.59904 | 16.27406 | 37044 ft | 499 kts | 137° |
| 2026-05-07 10:51 | 43.55163 | 16.34412 | 37043 ft | 499 kts | 137° |
| 2026-05-07 10:52 | 43.50418 | 16.41403 | 37046 ft | 500 kts | 137° |
| 2026-05-07 10:52 | 43.45668 | 16.48387 | 37044 ft | 500 kts | 137° |
| 2026-05-07 10:53 | 43.40912 | 16.55360 | 37055 ft | 500 kts | 137° |
| 2026-05-07 10:53 | 43.36957 | 16.61148 | 37059 ft | 500 kts | 137° |
| 2026-05-07 10:54 | 43.32192 | 16.68105 | 37070 ft | 499 kts | 137° |
| 2026-05-07 10:54 | 43.27431 | 16.75040 | 37071 ft | 499 kts | 137° |
| 2026-05-07 10:55 | 43.22655 | 16.81978 | 37073 ft | 500 kts | 137° |
| 2026-05-07 10:55 | 43.17878 | 16.88902 | 37077 ft | 500 kts | 137° |
| 2026-05-07 10:56 | 43.13092 | 16.95822 | 37082 ft | 500 kts | 137° |
| 2026-05-07 10:56 | 43.08301 | 17.02734 | 37079 ft | 500 kts | 137° |
| 2026-05-07 10:57 | 43.03506 | 17.09633 | 37084 ft | 500 kts | 137° |
| 2026-05-07 10:57 | 42.98705 | 17.16524 | 37082 ft | 500 kts | 137° |
| 2026-05-07 10:58 | 42.93901 | 17.23403 | 37078 ft | 500 kts | 137° |
| 2026-05-07 10:58 | 42.89124 | 17.30227 | 37075 ft | 500 kts | 137° |
| 2026-05-07 10:59 | 42.84310 | 17.37085 | 37081 ft | 501 kts | 137° |
| 2026-05-07 10:59 | 42.79488 | 17.43939 | 37080 ft | 501 kts | 137° |
| 2026-05-07 11:00 | 42.74666 | 17.50777 | 37080 ft | 500 kts | 137° |
| 2026-05-07 11:00 | 42.69846 | 17.57596 | 37079 ft | 500 kts | 137° |
| 2026-05-07 11:01 | 42.65018 | 17.64411 | 37079 ft | 500 kts | 137° |
| 2026-05-07 11:01 | 42.60193 | 17.71204 | 37082 ft | 500 kts | 137° |
| 2026-05-07 11:02 | 42.55399 | 17.77937 | 37078 ft | 499 kts | 137° |
| 2026-05-07 11:02 | 42.50572 | 17.84702 | 37078 ft | 499 kts | 137° |
| 2026-05-07 11:03 | 42.45738 | 17.91460 | 37090 ft | 499 kts | 138° |
| 2026-05-07 11:03 | 42.40906 | 17.98199 | 37094 ft | 499 kts | 138° |
| 2026-05-07 11:04 | 42.36071 | 18.04927 | 37095 ft | 498 kts | 138° |
| 2026-05-07 11:04 | 42.31237 | 18.11638 | 37092 ft | 498 kts | 138° |
| 2026-05-07 11:05 | 42.26406 | 18.18329 | 37095 ft | 498 kts | 138° |
| 2026-05-07 11:05 | 42.21563 | 18.25020 | 37088 ft | 497 kts | 138° |
| 2026-05-07 11:06 | 42.16723 | 18.31691 | 37089 ft | 497 kts | 138° |
| 2026-05-07 11:06 | 42.11881 | 18.38351 | 37090 ft | 497 kts | 138° |
| 2026-05-07 11:07 | 42.07040 | 18.44994 | 37093 ft | 497 kts | 138° |
| 2026-05-07 11:07 | 42.02314 | 18.51796 | 37099 ft | 501 kts | 131° |
| 2026-05-07 11:08 | 41.98689 | 18.59771 | 37099 ft | 505 kts | 121° |
| 2026-05-07 11:08 | 41.95475 | 18.68179 | 37104 ft | 506 kts | 120° |
| 2026-05-07 11:09 | 41.92321 | 18.76628 | 37099 ft | 506 kts | 120° |
| 2026-05-07 11:09 | 41.89146 | 18.85044 | 37099 ft | 505 kts | 120° |
| 2026-05-07 11:10 | 41.85946 | 18.93433 | 37102 ft | 505 kts | 120° |
| 2026-05-07 11:10 | 41.82737 | 19.01805 | 37100 ft | 504 kts | 120° |
| 2026-05-07 11:11 | 41.79525 | 19.10160 | 37099 ft | 504 kts | 120° |
| 2026-05-07 11:11 | 41.76312 | 19.18498 | 37094 ft | 503 kts | 120° |
| 2026-05-07 11:12 | 41.73094 | 19.26825 | 37092 ft | 503 kts | 120° |
| 2026-05-07 11:12 | 41.69869 | 19.35147 | 37100 ft | 504 kts | 121° |
| 2026-05-07 11:13 | 41.66635 | 19.43467 | 37093 ft | 504 kts | 121° |
| 2026-05-07 11:13 | 41.63391 | 19.51792 | 37084 ft | 504 kts | 121° |
| 2026-05-07 11:14 | 41.60143 | 19.60101 | 37073 ft | 504 kts | 121° |
| 2026-05-07 11:14 | 41.56889 | 19.68404 | 37070 ft | 505 kts | 121° |
| 2026-05-07 11:15 | 41.53645 | 19.76657 | 37084 ft | 506 kts | 121° |
| 2026-05-07 11:15 | 41.50367 | 19.84970 | 37080 ft | 506 kts | 121° |
| 2026-05-07 11:16 | 41.47083 | 19.93276 | 37085 ft | 507 kts | 121° |
| 2026-05-07 11:16 | 41.43786 | 20.01595 | 37083 ft | 507 kts | 121° |
| 2026-05-07 11:17 | 41.40485 | 20.09899 | 37095 ft | 507 kts | 121° |
| 2026-05-07 11:17 | 41.37179 | 20.18190 | 37107 ft | 507 kts | 121° |
| 2026-05-07 11:18 | 41.33864 | 20.26482 | 37119 ft | 507 kts | 121° |
| 2026-05-07 11:18 | 41.30550 | 20.34749 | 37133 ft | 507 kts | 121° |
| 2026-05-07 11:19 | 41.27226 | 20.43015 | 37150 ft | 507 kts | 121° |
| 2026-05-07 11:19 | 41.23915 | 20.51222 | 37160 ft | 506 kts | 121° |
| 2026-05-07 11:20 | 41.20586 | 20.59455 | 37178 ft | 506 kts | 121° |
| 2026-05-07 11:20 | 41.17253 | 20.67675 | 37184 ft | 505 kts | 121° |
| 2026-05-07 11:21 | 41.13921 | 20.75875 | 37185 ft | 505 kts | 121° |
| 2026-05-07 11:21 | 41.10581 | 20.84069 | 37181 ft | 505 kts | 121° |
| 2026-05-07 11:22 | 41.07239 | 20.92243 | 37164 ft | 504 kts | 122° |
| 2026-05-07 11:22 | 41.03891 | 21.00411 | 37170 ft | 504 kts | 121° |
| 2026-05-07 11:23 | 41.00535 | 21.08575 | 37155 ft | 504 kts | 121° |
| 2026-05-07 11:23 | 40.97179 | 21.16720 | 37156 ft | 504 kts | 121° |
| 2026-05-07 11:24 | 40.93832 | 21.24816 | 37162 ft | 505 kts | 121° |
| 2026-05-07 11:24 | 40.90456 | 21.32962 | 37162 ft | 506 kts | 121° |
| 2026-05-07 11:25 | 40.87069 | 21.41111 | 37162 ft | 506 kts | 121° |
| 2026-05-07 11:25 | 40.83671 | 21.49266 | 37164 ft | 506 kts | 121° |
| 2026-05-07 11:26 | 40.80263 | 21.57424 | 37164 ft | 507 kts | 122° |
| 2026-05-07 11:26 | 40.76849 | 21.65574 | 37166 ft | 508 kts | 122° |
| 2026-05-07 11:27 | 40.73426 | 21.73722 | 37167 ft | 508 kts | 122° |
| 2026-05-07 11:27 | 40.69992 | 21.81873 | 37162 ft | 509 kts | 122° |
| 2026-05-07 11:28 | 40.66550 | 21.90022 | 37166 ft | 509 kts | 122° |
| 2026-05-07 11:28 | 40.63102 | 21.98165 | 37161 ft | 509 kts | 122° |
| 2026-05-07 11:29 | 40.59648 | 22.06299 | 37163 ft | 509 kts | 122° |
| 2026-05-07 11:29 | 40.56193 | 22.14412 | 37157 ft | 509 kts | 122° |
| 2026-05-07 11:30 | 40.52727 | 22.22531 | 37155 ft | 509 kts | 122° |
| 2026-05-07 11:30 | 40.49257 | 22.30637 | 37156 ft | 509 kts | 122° |
| 2026-05-07 11:31 | 40.45777 | 22.38745 | 37156 ft | 509 kts | 122° |
| 2026-05-07 11:31 | 40.42315 | 22.46790 | 37157 ft | 509 kts | 122° |
| 2026-05-07 11:32 | 40.37074 | 22.58927 | 37157 ft | 510 kts | 122° |
| 2026-05-07 11:33 | 40.33565 | 22.67027 | 37157 ft | 511 kts | 122° |
| 2026-05-07 11:33 | 40.30053 | 22.75113 | 37155 ft | 511 kts | 122° |
| 2026-05-07 11:34 | 40.26525 | 22.83214 | 37152 ft | 512 kts | 122° |
| 2026-05-07 11:34 | 40.22993 | 22.91303 | 37153 ft | 512 kts | 122° |
| 2026-05-07 11:35 | 40.19448 | 22.99401 | 37147 ft | 513 kts | 122° |
| 2026-05-07 11:35 | 40.15894 | 23.07496 | 37141 ft | 514 kts | 122° |
| 2026-05-07 11:36 | 40.12329 | 23.15598 | 37144 ft | 515 kts | 122° |
| 2026-05-07 11:36 | 40.08750 | 23.23707 | 37145 ft | 516 kts | 122° |
| 2026-05-07 11:37 | 40.05159 | 23.31823 | 37142 ft | 516 kts | 122° |
| 2026-05-07 11:37 | 40.01563 | 23.39931 | 37140 ft | 516 kts | 122° |
| 2026-05-07 11:38 | 39.97957 | 23.48038 | 37139 ft | 517 kts | 122° |
| 2026-05-07 11:38 | 39.94371 | 23.56082 | 37135 ft | 517 kts | 122° |
| 2026-05-07 11:39 | 39.90744 | 23.64193 | 37138 ft | 518 kts | 122° |
| 2026-05-07 11:39 | 39.87112 | 23.72294 | 37138 ft | 518 kts | 122° |
| 2026-05-07 11:40 | 39.83475 | 23.80386 | 37133 ft | 518 kts | 122° |
| 2026-05-07 11:40 | 39.79827 | 23.88484 | 37130 ft | 518 kts | 122° |
| 2026-05-07 11:41 | 39.76175 | 23.96566 | 37130 ft | 519 kts | 122° |
| 2026-05-07 11:41 | 39.73136 | 24.03278 | 37127 ft | 519 kts | 122° |
| 2026-05-07 11:42 | 39.69471 | 24.11352 | 37130 ft | 519 kts | 122° |
| 2026-05-07 11:42 | 39.65801 | 24.19414 | 37128 ft | 518 kts | 122° |
| 2026-05-07 11:43 | 39.61532 | 24.28768 | 37129 ft | 518 kts | 122° |
| 2026-05-07 11:43 | 39.58448 | 24.35510 | 37128 ft | 518 kts | 122° |
| 2026-05-07 11:44 | 39.54764 | 24.43542 | 37129 ft | 518 kts | 122° |
| 2026-05-07 11:44 | 39.51078 | 24.51559 | 37127 ft | 518 kts | 122° |
| 2026-05-07 11:45 | 39.47386 | 24.59567 | 37126 ft | 518 kts | 122° |
| 2026-05-07 11:45 | 39.43690 | 24.67564 | 37124 ft | 518 kts | 122° |
| 2026-05-07 11:46 | 39.40013 | 24.75501 | 37125 ft | 518 kts | 122° |
| 2026-05-07 11:46 | 39.36304 | 24.83486 | 37126 ft | 518 kts | 122° |
| 2026-05-07 11:47 | 39.32585 | 24.91471 | 37126 ft | 518 kts | 122° |
| 2026-05-07 11:47 | 39.28869 | 24.99431 | 37127 ft | 518 kts | 122° |
| 2026-05-07 11:48 | 39.25143 | 25.07392 | 37141 ft | 518 kts | 122° |
| 2026-05-07 11:48 | 39.21413 | 25.15342 | 37128 ft | 518 kts | 122° |
| 2026-05-07 11:49 | 39.17676 | 25.23285 | 37129 ft | 518 kts | 122° |
| 2026-05-07 11:49 | 39.13932 | 25.31225 | 37149 ft | 519 kts | 122° |
| 2026-05-07 11:50 | 39.10178 | 25.39164 | 37143 ft | 519 kts | 122° |
| 2026-05-07 11:50 | 39.06417 | 25.47101 | 37136 ft | 519 kts | 122° |
| 2026-05-07 11:51 | 39.02678 | 25.54971 | 37145 ft | 519 kts | 122° |
| 2026-05-07 11:51 | 38.98903 | 25.62897 | 37146 ft | 519 kts | 122° |
| 2026-05-07 11:52 | 38.95124 | 25.70810 | 37145 ft | 520 kts | 122° |
| 2026-05-07 11:52 | 38.91336 | 25.78725 | 37141 ft | 520 kts | 122° |
| 2026-05-07 11:53 | 38.87541 | 25.86633 | 37144 ft | 520 kts | 122° |
| 2026-05-07 11:53 | 38.83738 | 25.94539 | 37143 ft | 520 kts | 122° |
| 2026-05-07 11:54 | 38.79933 | 26.02430 | 37145 ft | 521 kts | 122° |
| 2026-05-07 11:54 | 38.76118 | 26.10321 | 37141 ft | 521 kts | 122° |
| 2026-05-07 11:55 | 38.72299 | 26.18203 | 37144 ft | 520 kts | 122° |
| 2026-05-07 11:55 | 38.68657 | 26.26212 | 37141 ft | 521 kts | 119° |
| 2026-05-07 11:56 | 38.65237 | 26.34376 | 37136 ft | 520 kts | 118° |
| 2026-05-07 11:56 | 38.61852 | 26.42557 | 37136 ft | 520 kts | 118° |
| 2026-05-07 11:57 | 38.58449 | 26.50715 | 37134 ft | 520 kts | 118° |
| 2026-05-07 11:57 | 38.55024 | 26.58863 | 37138 ft | 521 kts | 118° |
| 2026-05-07 11:58 | 38.51611 | 26.66951 | 37130 ft | 520 kts | 118° |
| 2026-05-07 11:58 | 38.48167 | 26.75088 | 37128 ft | 521 kts | 118° |
| 2026-05-07 11:59 | 38.44717 | 26.83225 | 37131 ft | 521 kts | 118° |
| 2026-05-07 11:59 | 38.41263 | 26.91348 | 37129 ft | 521 kts | 118° |
| 2026-05-07 12:00 | 38.37801 | 26.99469 | 37129 ft | 521 kts | 118° |
| 2026-05-07 12:00 | 38.34333 | 27.07585 | 37131 ft | 521 kts | 118° |
| 2026-05-07 12:01 | 38.30856 | 27.15702 | 37128 ft | 522 kts | 118° |
| 2026-05-07 12:01 | 38.27394 | 27.23759 | 37132 ft | 522 kts | 118° |
| 2026-05-07 12:02 | 38.23901 | 27.31870 | 37121 ft | 523 kts | 118° |
| 2026-05-07 12:02 | 38.20400 | 27.39978 | 37125 ft | 523 kts | 118° |
| 2026-05-07 12:03 | 38.16892 | 27.48080 | 37126 ft | 523 kts | 118° |
| 2026-05-07 12:03 | 38.13375 | 27.56184 | 37132 ft | 524 kts | 118° |
| 2026-05-07 12:04 | 38.09853 | 27.64283 | 37126 ft | 524 kts | 118° |
| 2026-05-07 12:04 | 38.06318 | 27.72388 | 37116 ft | 525 kts | 118° |
| 2026-05-07 12:05 | 38.02776 | 27.80490 | 37120 ft | 525 kts | 118° |
| 2026-05-07 12:05 | 37.99226 | 27.88587 | 37116 ft | 526 kts | 118° |
| 2026-05-07 12:06 | 37.95686 | 27.96644 | 37096 ft | 527 kts | 119° |
| 2026-05-07 12:06 | 37.92109 | 28.04761 | 37103 ft | 528 kts | 118° |
| 2026-05-07 12:07 | 37.88522 | 28.12881 | 37112 ft | 529 kts | 118° |
| 2026-05-07 12:07 | 37.84918 | 28.21018 | 37125 ft | 529 kts | 118° |
| 2026-05-07 12:08 | 37.81307 | 28.29153 | 37134 ft | 530 kts | 118° |
| 2026-05-07 12:08 | 37.77687 | 28.37288 | 37144 ft | 531 kts | 118° |
| 2026-05-07 12:09 | 37.74056 | 28.45423 | 37142 ft | 531 kts | 118° |
| 2026-05-07 12:09 | 37.70442 | 28.53503 | 37147 ft | 532 kts | 118° |
| 2026-05-07 12:10 | 37.66794 | 28.61638 | 37146 ft | 532 kts | 118° |
| 2026-05-07 12:10 | 37.63137 | 28.69769 | 37154 ft | 533 kts | 118° |
| 2026-05-07 12:11 | 37.59471 | 28.77904 | 37158 ft | 533 kts | 118° |
| 2026-05-07 12:11 | 37.55798 | 28.86033 | 37165 ft | 533 kts | 118° |
| 2026-05-07 12:12 | 37.52121 | 28.94151 | 37168 ft | 533 kts | 118° |
| 2026-05-07 12:12 | 37.48443 | 29.02251 | 37175 ft | 533 kts | 118° |
| 2026-05-07 12:13 | 37.44760 | 29.10344 | 37175 ft | 533 kts | 118° |
| 2026-05-07 12:13 | 37.41071 | 29.18427 | 37175 ft | 532 kts | 118° |
| 2026-05-07 12:14 | 37.37405 | 29.26441 | 37165 ft | 532 kts | 118° |
| 2026-05-07 12:14 | 37.33704 | 29.34510 | 37168 ft | 533 kts | 118° |
| 2026-05-07 12:15 | 37.30001 | 29.42564 | 37161 ft | 532 kts | 118° |
| 2026-05-07 12:15 | 37.26300 | 29.50594 | 37166 ft | 531 kts | 118° |
| 2026-05-07 12:16 | 37.22592 | 29.58620 | 37171 ft | 531 kts | 118° |
| 2026-05-07 12:16 | 37.18883 | 29.66629 | 37173 ft | 530 kts | 118° |
| 2026-05-07 12:17 | 37.15174 | 29.74619 | 37177 ft | 530 kts | 118° |
| 2026-05-07 12:17 | 37.11462 | 29.82595 | 37175 ft | 529 kts | 118° |
| 2026-05-07 12:18 | 37.07780 | 29.90486 | 37168 ft | 528 kts | 118° |
| 2026-05-07 12:18 | 37.04068 | 29.98425 | 37171 ft | 528 kts | 118° |
| 2026-05-07 12:19 | 37.00355 | 30.06346 | 37161 ft | 527 kts | 119° |
| 2026-05-07 12:19 | 36.96643 | 30.14246 | 37159 ft | 527 kts | 119° |
| 2026-05-07 12:20 | 36.92926 | 30.22138 | 37153 ft | 526 kts | 119° |
| 2026-05-07 12:20 | 36.89209 | 30.30011 | 37149 ft | 525 kts | 119° |
| 2026-05-07 12:21 | 36.85494 | 30.37862 | 37139 ft | 525 kts | 119° |
| 2026-05-07 12:21 | 36.81779 | 30.45695 | 37128 ft | 524 kts | 119° |
| 2026-05-07 12:22 | 36.78086 | 30.53462 | 37117 ft | 524 kts | 119° |
| 2026-05-07 12:22 | 36.74357 | 30.61287 | 37115 ft | 524 kts | 119° |
| 2026-05-07 12:23 | 36.70625 | 30.69098 | 37105 ft | 524 kts | 119° |
| 2026-05-07 12:23 | 36.66895 | 30.76887 | 37109 ft | 524 kts | 119° |
| 2026-05-07 12:24 | 36.63158 | 30.84673 | 37111 ft | 523 kts | 119° |
| 2026-05-07 12:24 | 36.59421 | 30.92441 | 37117 ft | 523 kts | 119° |
| 2026-05-07 12:25 | 36.55675 | 31.00211 | 37121 ft | 523 kts | 119° |
| 2026-05-07 12:25 | 36.51928 | 31.07965 | 37121 ft | 523 kts | 119° |
| 2026-05-07 12:26 | 36.48177 | 31.15709 | 37124 ft | 522 kts | 119° |
| 2026-05-07 12:26 | 36.44452 | 31.23381 | 37126 ft | 522 kts | 119° |
| 2026-05-07 12:27 | 36.40696 | 31.31100 | 37125 ft | 522 kts | 119° |
| 2026-05-07 12:27 | 36.36934 | 31.38812 | 37129 ft | 521 kts | 120° |
| 2026-05-07 12:28 | 36.33174 | 31.46505 | 37131 ft | 521 kts | 120° |
| 2026-05-07 12:28 | 36.29411 | 31.54184 | 37131 ft | 521 kts | 120° |
| 2026-05-07 12:29 | 36.25642 | 31.61859 | 37133 ft | 521 kts | 120° |
| 2026-05-07 12:29 | 36.21873 | 31.69517 | 37131 ft | 521 kts | 120° |
| 2026-05-07 12:30 | 36.18101 | 31.77164 | 37133 ft | 521 kts | 120° |
| 2026-05-07 12:30 | 36.14321 | 31.84809 | 37135 ft | 521 kts | 120° |
| 2026-05-07 12:31 | 36.10538 | 31.92443 | 37139 ft | 521 kts | 120° |
| 2026-05-07 12:31 | 36.06750 | 32.00071 | 37140 ft | 521 kts | 120° |
| 2026-05-07 12:32 | 36.02979 | 32.07647 | 37140 ft | 521 kts | 120° |
| 2026-05-07 12:32 | 35.99179 | 32.15264 | 37137 ft | 521 kts | 120° |
| 2026-05-07 12:33 | 35.94112 | 32.25395 | 37134 ft | 521 kts | 120° |
| 2026-05-07 12:33 | 35.90299 | 32.32999 | 37135 ft | 521 kts | 120° |
| 2026-05-07 12:34 | 35.86479 | 32.40602 | 37135 ft | 521 kts | 121° |
| 2026-05-07 12:34 | 35.82658 | 32.48186 | 37136 ft | 521 kts | 121° |
| 2026-05-07 12:35 | 35.78833 | 32.55765 | 37135 ft | 521 kts | 121° |
| 2026-05-07 12:35 | 35.75001 | 32.63339 | 37131 ft | 521 kts | 121° |
| 2026-05-07 12:36 | 35.71164 | 32.70907 | 37130 ft | 521 kts | 121° |
| 2026-05-07 12:36 | 35.67325 | 32.78461 | 37128 ft | 521 kts | 121° |
| 2026-05-07 12:37 | 35.63479 | 32.86014 | 37128 ft | 521 kts | 121° |
| 2026-05-07 12:37 | 35.59639 | 32.93538 | 37122 ft | 521 kts | 121° |
| 2026-05-07 12:38 | 35.55775 | 33.01093 | 37126 ft | 521 kts | 121° |
| 2026-05-07 12:38 | 35.51917 | 33.08618 | 37123 ft | 521 kts | 122° |
| 2026-05-07 12:39 | 35.48055 | 33.16137 | 37125 ft | 521 kts | 122° |
| 2026-05-07 12:39 | 35.44187 | 33.23649 | 37123 ft | 521 kts | 122° |
| 2026-05-07 12:40 | 35.40343 | 33.31100 | 37114 ft | 521 kts | 122° |
| 2026-05-07 12:40 | 35.36465 | 33.38602 | 37115 ft | 521 kts | 122° |
| 2026-05-07 12:41 | 35.32582 | 33.46095 | 37104 ft | 521 kts | 122° |
| 2026-05-07 12:41 | 35.28691 | 33.53588 | 37103 ft | 521 kts | 122° |
| 2026-05-07 12:42 | 35.24795 | 33.61075 | 37102 ft | 522 kts | 122° |
| 2026-05-07 12:42 | 35.20897 | 33.68549 | 37114 ft | 522 kts | 123° |
| 2026-05-07 12:43 | 35.18938 | 33.72299 | 37327 ft | 521 kts | 123° |
| 2026-05-07 12:43 | 35.16998 | 33.76010 | 37741 ft | 518 kts | 123° |
| 2026-05-07 12:43 | 35.15057 | 33.79718 | 38118 ft | 515 kts | 123° |
| 2026-05-07 12:43 | 35.13127 | 33.83402 | 38466 ft | 514 kts | 123° |
| 2026-05-07 12:44 | 35.11199 | 33.87077 | 38759 ft | 513 kts | 123° |
| 2026-05-07 12:44 | 35.09278 | 33.90736 | 38967 ft | 512 kts | 123° |
| 2026-05-07 12:44 | 35.07354 | 33.94395 | 39093 ft | 513 kts | 123° |
| 2026-05-07 12:44 | 35.05441 | 33.98030 | 39122 ft | 517 kts | 123° |
| 2026-05-07 12:45 | 35.01551 | 34.05411 | 39109 ft | 517 kts | 123° |
| 2026-05-07 12:45 | 34.97658 | 34.12782 | 39120 ft | 516 kts | 124° |
| 2026-05-07 12:46 | 34.93765 | 34.20137 | 39120 ft | 516 kts | 124° |
| 2026-05-07 12:46 | 34.89872 | 34.27479 | 39116 ft | 516 kts | 124° |
| 2026-05-07 12:47 | 34.85966 | 34.34827 | 39113 ft | 516 kts | 124° |
| 2026-05-07 12:47 | 34.82063 | 34.42156 | 39110 ft | 516 kts | 124° |
| 2026-05-07 12:48 | 34.78159 | 34.49472 | 39107 ft | 516 kts | 124° |
| 2026-05-07 12:48 | 34.74248 | 34.56786 | 39109 ft | 515 kts | 124° |
| 2026-05-07 12:49 | 34.70336 | 34.64085 | 39107 ft | 515 kts | 124° |
| 2026-05-07 12:49 | 34.66445 | 34.71333 | 39105 ft | 515 kts | 125° |
| 2026-05-07 12:50 | 34.62533 | 34.78604 | 39108 ft | 514 kts | 125° |
| 2026-05-07 12:50 | 34.58613 | 34.85873 | 39106 ft | 514 kts | 125° |
| 2026-05-07 12:51 | 34.54695 | 34.93127 | 39103 ft | 514 kts | 125° |
| 2026-05-07 12:51 | 34.50772 | 35.00372 | 39101 ft | 513 kts | 125° |
| 2026-05-07 12:52 | 34.47453 | 35.08025 | 39103 ft | 515 kts | 112° |
| 2026-05-07 12:52 | 34.45027 | 35.16207 | 39102 ft | 516 kts | 110° |
| 2026-05-07 12:53 | 34.42780 | 35.24473 | 39100 ft | 517 kts | 109° |
| 2026-05-07 12:53 | 34.40524 | 35.32734 | 39098 ft | 517 kts | 110° |
| 2026-05-07 12:54 | 34.38228 | 35.40989 | 39099 ft | 517 kts | 110° |
| 2026-05-07 12:54 | 34.35914 | 35.49228 | 39099 ft | 517 kts | 110° |
| 2026-05-07 12:55 | 34.33594 | 35.57459 | 39100 ft | 517 kts | 110° |
| 2026-05-07 12:55 | 34.31267 | 35.65694 | 39104 ft | 517 kts | 110° |
| 2026-05-07 12:56 | 34.28636 | 35.73717 | 39101 ft | 515 kts | 116° |
| 2026-05-07 12:56 | 34.25707 | 35.81632 | 39100 ft | 515 kts | 116° |
| 2026-05-07 12:57 | 34.22761 | 35.89520 | 39093 ft | 516 kts | 116° |
| 2026-05-07 12:57 | 34.19818 | 35.97434 | 39087 ft | 516 kts | 116° |
| 2026-05-07 12:58 | 34.16880 | 36.05345 | 39078 ft | 516 kts | 116° |
| 2026-05-07 12:58 | 34.13938 | 36.13255 | 39078 ft | 516 kts | 116° |
| 2026-05-07 12:59 | 34.10992 | 36.21161 | 39072 ft | 516 kts | 117° |
| 2026-05-07 12:59 | 34.08042 | 36.29053 | 39066 ft | 516 kts | 117° |
| 2026-05-07 13:00 | 34.05104 | 36.36893 | 39060 ft | 516 kts | 117° |
| 2026-05-07 13:00 | 34.02141 | 36.44780 | 39059 ft | 516 kts | 117° |
| 2026-05-07 13:01 | 33.99175 | 36.52658 | 39060 ft | 516 kts | 117° |
| 2026-05-07 13:01 | 33.96201 | 36.60537 | 39050 ft | 516 kts | 117° |
| 2026-05-07 13:02 | 33.93224 | 36.68406 | 39047 ft | 516 kts | 117° |
| 2026-05-07 13:02 | 33.90242 | 36.76271 | 39042 ft | 516 kts | 117° |
| 2026-05-07 13:03 | 33.87256 | 36.84128 | 39036 ft | 516 kts | 117° |
| 2026-05-07 13:03 | 33.84261 | 36.91988 | 39028 ft | 516 kts | 117° |
| 2026-05-07 13:04 | 33.81257 | 36.99853 | 39029 ft | 517 kts | 117° |
| 2026-05-07 13:04 | 33.78253 | 37.07701 | 39013 ft | 517 kts | 117° |
| 2026-05-07 13:05 | 33.75256 | 37.15511 | 39026 ft | 517 kts | 117° |
| 2026-05-07 13:05 | 33.72238 | 37.23358 | 39008 ft | 517 kts | 117° |
| 2026-05-07 13:06 | 33.69218 | 37.31192 | 39016 ft | 516 kts | 118° |
| 2026-05-07 13:06 | 33.66199 | 37.39003 | 39011 ft | 516 kts | 118° |
| 2026-05-07 13:07 | 33.63173 | 37.46817 | 39010 ft | 516 kts | 118° |
| 2026-05-07 13:07 | 33.60143 | 37.54621 | 39008 ft | 516 kts | 118° |
| 2026-05-07 13:08 | 33.56582 | 37.62007 | 39003 ft | 508 kts | 132° |
| 2026-05-07 13:08 | 33.51471 | 37.67653 | 39001 ft | 496 kts | 151° |
| 2026-05-07 13:09 | 33.45475 | 37.71616 | 39000 ft | 491 kts | 159° |
| 2026-05-07 13:09 | 33.39265 | 37.75017 | 38996 ft | 491 kts | 160° |
| 2026-05-07 13:10 | 33.33079 | 37.78385 | 39000 ft | 491 kts | 160° |
| 2026-05-07 13:10 | 33.26885 | 37.81855 | 39000 ft | 491 kts | 159° |
| 2026-05-07 13:11 | 33.20704 | 37.85365 | 39000 ft | 491 kts | 159° |
| 2026-05-07 13:11 | 33.14535 | 37.88871 | 38998 ft | 491 kts | 159° |
| 2026-05-07 13:12 | 33.08365 | 37.92368 | 38997 ft | 490 kts | 159° |
| 2026-05-07 13:12 | 33.02206 | 37.95850 | 38998 ft | 489 kts | 159° |
| 2026-05-07 13:13 | 32.96049 | 37.99325 | 38997 ft | 489 kts | 159° |
| 2026-05-07 13:13 | 32.89967 | 38.02828 | 38997 ft | 488 kts | 158° |
| 2026-05-07 13:14 | 32.85905 | 38.05253 | 38996 ft | 488 kts | 158° |